sensor_id;sensor_type;location;lat;lon;timestamp;temperature;humidity
45313;SHT31;68267;51.540;5.854;2023-03-01T00:10:04;-2.1;78.3
45313;SHT31;68267;51.540;5.854;2023-03-01T00:23:24;-2.1;77.4
45313;SHT31;68267;51.540;5.854;2023-03-01T00:36:43;-2.3;77.8
45313;SHT31;68267;51.540;5.854;2023-03-01T00:50:03;-2.5;77.6
45313;SHT31;68267;51.540;5.854;2023-03-01T01:03:23;-2.5;77.4
45313;SHT31;68267;51.540;5.854;2023-03-01T01:16:42;-2.5;79.3
45313;SHT31;68267;51.540;5.854;2023-03-01T01:30:02;-2.6;79.1
45313;SHT31;68267;51.540;5.854;2023-03-01T01:43:22;-2.8;80.2
45313;SHT31;68267;51.540;5.854;2023-03-01T01:56:41;-2.9;79.6
45313;SHT31;68267;51.540;5.854;2023-03-01T02:10:01;-2.9;80.6
45313;SHT31;68267;51.540;5.854;2023-03-01T02:23:20;-2.8;80.3
45313;SHT31;68267;51.540;5.854;2023-03-01T02:36:40;-3.0;80.9
45313;SHT31;68267;51.540;5.854;2023-03-01T02:50:00;-3.1;80.6
45313;SHT31;68267;51.540;5.854;2023-03-01T03:03:19;-3.3;80.0
45313;SHT31;68267;51.540;5.854;2023-03-01T03:16:39;-3.4;80.5
45313;SHT31;68267;51.540;5.854;2023-03-01T03:29:59;-3.5;80.2
45313;SHT31;68267;51.540;5.854;2023-03-01T03:43:19;-3.5;81.1
45313;SHT31;68267;51.540;5.854;2023-03-01T03:56:38;-3.5;80.9
45313;SHT31;68267;51.540;5.854;2023-03-01T04:09:58;-3.5;81.4
45313;SHT31;68267;51.540;5.854;2023-03-01T04:23:17;-3.5;82.2
45313;SHT31;68267;51.540;5.854;2023-03-01T04:36:37;-3.6;81.4
45313;SHT31;68267;51.540;5.854;2023-03-01T04:49:57;-3.5;82.5
45313;SHT31;68267;51.540;5.854;2023-03-01T05:03:16;-3.6;81.5
45313;SHT31;68267;51.540;5.854;2023-03-01T05:16:36;-3.9;81.4
45313;SHT31;68267;51.540;5.854;2023-03-01T05:29:55;-4.0;81.3
45313;SHT31;68267;51.540;5.854;2023-03-01T05:43:15;-4.2;81.5
45313;SHT31;68267;51.540;5.854;2023-03-01T05:56:35;-4.2;81.7
45313;SHT31;68267;51.540;5.854;2023-03-01T06:09:54;-4.3;83.0
45313;SHT31;68267;51.540;5.854;2023-03-01T06:23:14;-4.2;82.7
45313;SHT31;68267;51.540;5.854;2023-03-01T06:36:33;-4.3;82.4
45313;SHT31;68267;51.540;5.854;2023-03-01T06:49:53;-4.2;82.4
45313;SHT31;68267;51.540;5.854;2023-03-01T07:03:13;-2.5;83.4
45313;SHT31;68267;51.540;5.854;2023-03-01T07:16:32;-0.5;80.4
45313;SHT31;68267;51.540;5.854;2023-03-01T07:29:52;1.6;73.5
45313;SHT31;68267;51.540;5.854;2023-03-01T07:43:12;3.3;65.1
45313;SHT31;68267;51.540;5.854;2023-03-01T07:56:31;4.0;62.2
45313;SHT31;68267;51.540;5.854;2023-03-01T08:09:51;4.4;60.7
45313;SHT31;68267;51.540;5.854;2023-03-01T08:23:11;3.7;63.4
45313;SHT31;68267;51.540;5.854;2023-03-01T08:36:30;3.3;63.0
45313;SHT31;68267;51.540;5.854;2023-03-01T08:49:50;4.1;60.9
45313;SHT31;68267;51.540;5.854;2023-03-01T09:03:10;4.6;59.2
45313;SHT31;68267;51.540;5.854;2023-03-01T09:16:29;4.9;56.9
45313;SHT31;68267;51.540;5.854;2023-03-01T09:29:49;5.3;57.0
45313;SHT31;68267;51.540;5.854;2023-03-01T09:43:08;5.6;55.1
45313;SHT31;68267;51.540;5.854;2023-03-01T09:56:28;6.7;51.7
45313;SHT31;68267;51.540;5.854;2023-03-01T10:09:48;6.2;51.9
45313;SHT31;68267;51.540;5.854;2023-03-01T10:23:07;5.6;53.9
45313;SHT31;68267;51.540;5.854;2023-03-01T10:36:27;5.7;51.4
45313;SHT31;68267;51.540;5.854;2023-03-01T10:49:47;5.9;50.0
45313;SHT31;68267;51.540;5.854;2023-03-01T11:03:06;5.8;52.0
45313;SHT31;68267;51.540;5.854;2023-03-01T11:16:26;6.0;52.2
45313;SHT31;68267;51.540;5.854;2023-03-01T11:29:46;6.6;49.7
45313;SHT31;68267;51.540;5.854;2023-03-01T11:43:05;7.2;47.6
45313;SHT31;68267;51.540;5.854;2023-03-01T11:56:25;7.7;47.3
45313;SHT31;68267;51.540;5.854;2023-03-01T12:09:44;8.5;45.2
45313;SHT31;68267;51.540;5.854;2023-03-01T12:23:04;8.3;45.9
45313;SHT31;68267;51.540;5.854;2023-03-01T12:36:24;7.9;46.9
45313;SHT31;68267;51.540;5.854;2023-03-01T12:49:43;7.8;45.9
45313;SHT31;68267;51.540;5.854;2023-03-01T13:03:03;8.7;44.7
45313;SHT31;68267;51.540;5.854;2023-03-01T13:16:23;10.0;42.5
45313;SHT31;68267;51.540;5.854;2023-03-01T13:29:42;8.4;44.9
45313;SHT31;68267;51.540;5.854;2023-03-01T13:43:02;7.4;48.3
45313;SHT31;68267;51.540;5.854;2023-03-01T13:56:21;8.1;44.2
45313;SHT31;68267;51.540;5.854;2023-03-01T14:09:41;7.6;46.2
45313;SHT31;68267;51.540;5.854;2023-03-01T14:23:01;8.5;45.6
45313;SHT31;68267;51.540;5.854;2023-03-01T14:36:20;8.3;44.6
45313;SHT31;68267;51.540;5.854;2023-03-01T14:49:40;8.4;44.5
45313;SHT31;68267;51.540;5.854;2023-03-01T15:03:00;8.7;45.0
45313;SHT31;68267;51.540;5.854;2023-03-01T15:16:19;7.6;44.5
45313;SHT31;68267;51.540;5.854;2023-03-01T15:29:39;7.7;46.8
45313;SHT31;68267;51.540;5.854;2023-03-01T15:42:58;8.5;45.1
45313;SHT31;68267;51.540;5.854;2023-03-01T15:56:18;7.5;46.3
45313;SHT31;68267;51.540;5.854;2023-03-01T16:09:38;7.7;45.7
45313;SHT31;68267;51.540;5.854;2023-03-01T16:22:57;7.3;47.0
45313;SHT31;68267;51.540;5.854;2023-03-01T16:36:17;7.7;45.9
45313;SHT31;68267;51.540;5.854;2023-03-01T16:49:37;7.5;47.3
45313;SHT31;68267;51.540;5.854;2023-03-01T17:02:56;6.7;49.9
45313;SHT31;68267;51.540;5.854;2023-03-01T17:16:16;5.6;53.5
45313;SHT31;68267;51.540;5.854;2023-03-01T17:29:35;4.9;54.8
45313;SHT31;68267;51.540;5.854;2023-03-01T17:42:55;4.2;58.2
45313;SHT31;68267;51.540;5.854;2023-03-01T17:56:15;3.5;60.7
45313;SHT31;68267;51.540;5.854;2023-03-01T18:09:34;3.4;60.5
45313;SHT31;68267;51.540;5.854;2023-03-01T18:22:54;3.1;61.6
45313;SHT31;68267;51.540;5.854;2023-03-01T18:36:13;2.6;62.3
45313;SHT31;68267;51.540;5.854;2023-03-01T18:49:33;2.2;65.0
45313;SHT31;68267;51.540;5.854;2023-03-01T19:02:53;1.6;66.4
45313;SHT31;68267;51.540;5.854;2023-03-01T19:16:12;1.4;65.2
45313;SHT31;68267;51.540;5.854;2023-03-01T19:29:32;1.2;66.0
45313;SHT31;68267;51.540;5.854;2023-03-01T19:42:52;1.3;65.8
45313;SHT31;68267;51.540;5.854;2023-03-01T19:56:11;1.1;66.4
45313;SHT31;68267;51.540;5.854;2023-03-01T20:09:31;0.8;66.2
45313;SHT31;68267;51.540;5.854;2023-03-01T20:22:51;0.5;69.7
45313;SHT31;68267;51.540;5.854;2023-03-01T20:36:10;0.6;70.4
45313;SHT31;68267;51.540;5.854;2023-03-01T20:49:30;0.3;70.5
45313;SHT31;68267;51.540;5.854;2023-03-01T21:02:49;0.1;72.6
45313;SHT31;68267;51.540;5.854;2023-03-01T21:16:09;0.2;72.1
45313;SHT31;68267;51.540;5.854;2023-03-01T21:29:29;0.1;74.1
45313;SHT31;68267;51.540;5.854;2023-03-01T21:42:48;0.4;73.8
45313;SHT31;68267;51.540;5.854;2023-03-01T21:56:08;0.5;73.7
45313;SHT31;68267;51.540;5.854;2023-03-01T22:09:28;0.6;73.0
45313;SHT31;68267;51.540;5.854;2023-03-01T22:22:47;0.3;74.2
45313;SHT31;68267;51.540;5.854;2023-03-01T22:36:07;0.3;73.9
45313;SHT31;68267;51.540;5.854;2023-03-01T22:49:26;0.4;74.1
45313;SHT31;68267;51.540;5.854;2023-03-01T23:02:46;0.4;72.6
45313;SHT31;68267;51.540;5.854;2023-03-01T23:16:06;0.3;72.7
45313;SHT31;68267;51.540;5.854;2023-03-01T23:29:25;0.1;73.0
45313;SHT31;68267;51.540;5.854;2023-03-01T23:42:45;-0.3;73.1
45313;SHT31;68267;51.540;5.854;2023-03-01T23:56:05;-0.6;74.4
